sensor_id;sensor_type;location;lat;lon;timestamp;temperature;humidity
18454;DHT22;9356;52.202;20.950;2022-07-29T00:00:15;18.50;70.30
18454;DHT22;9356;52.202;20.950;2022-07-29T00:01:19;18.40;70.30
18454;DHT22;9356;52.202;20.950;2022-07-29T00:02:22;18.40;70.50
18454;DHT22;9356;52.202;20.950;2022-07-29T00:03:25;18.40;70.80
18454;DHT22;9356;52.202;20.950;2022-07-29T00:04:29;15.60;69.00
18454;DHT22;9356;52.202;20.950;2022-07-29T00:05:33;18.30;71.00
18454;DHT22;9356;52.202;20.950;2022-07-29T00:06:35;17.50;70.70
18454;DHT22;9356;52.202;20.950;2022-07-29T00:07:39;18.30;71.20
18454;DHT22;9356;52.202;20.950;2022-07-29T00:08:42;18.30;71.10
18454;DHT22;9356;52.202;20.950;2022-07-29T00:09:45;18.40;71.30
18454;DHT22;9356;52.202;20.950;2022-07-29T00:10:53;18.30;71.40
18454;DHT22;9356;52.202;20.950;2022-07-29T00:11:59;18.40;71.00
18454;DHT22;9356;52.202;20.950;2022-07-29T00:13:02;18.50;71.10
18454;DHT22;9356;52.202;20.950;2022-07-29T00:14:05;18.40;70.80
18454;DHT22;9356;52.202;20.950;2022-07-29T00:15:08;18.40;70.90
18454;DHT22;9356;52.202;20.950;2022-07-29T00:16:12;18.50;71.80
18454;DHT22;9356;52.202;20.950;2022-07-29T00:17:14;18.40;71.10
18454;DHT22;9356;52.202;20.950;2022-07-29T00:18:20;18.50;71.00
18454;DHT22;9356;52.202;20.950;2022-07-29T00:19:22;18.40;70.90
18454;DHT22;9356;52.202;20.950;2022-07-29T00:20:27;18.40;70.80
18454;DHT22;9356;52.202;20.950;2022-07-29T00:21:30;18.50;71.00
18454;DHT22;9356;52.202;20.950;2022-07-29T00:22:33;18.60;72.30
18454;DHT22;9356;52.202;20.950;2022-07-29T00:23:38;18.60;71.70
18454;DHT22;9356;52.202;20.950;2022-07-29T00:24:42;18.60;70.90
18454;DHT22;9356;52.202;20.950;2022-07-29T00:25:44;18.60;70.80
18454;DHT22;9356;52.202;20.950;2022-07-29T00:26:47;18.60;70.60
18454;DHT22;9356;52.202;20.950;2022-07-29T00:27:50;18.70;70.60
18454;DHT22;9356;52.202;20.950;2022-07-29T00:28:53;17.20;69.90
18454;DHT22;9356;52.202;20.950;2022-07-29T00:30:16;18.70;70.30
18454;DHT22;9356;52.202;20.950;2022-07-29T00:31:19;18.70;70.00
18454;DHT22;9356;52.202;20.950;2022-07-29T00:32:25;18.60;69.90
18454;DHT22;9356;52.202;20.950;2022-07-29T00:33:29;18.60;69.90
18454;DHT22;9356;52.202;20.950;2022-07-29T00:34:31;18.70;70.40
18454;DHT22;9356;52.202;20.950;2022-07-29T00:35:54;18.60;70.00
18454;DHT22;9356;52.202;20.950;2022-07-29T00:36:58;18.60;70.10
18454;DHT22;9356;52.202;20.950;2022-07-29T00:38:03;18.60;70.00
18454;DHT22;9356;52.202;20.950;2022-07-29T00:39:06;18.60;70.10
18454;DHT22;9356;52.202;20.950;2022-07-29T00:40:09;16.90;69.10
18454;DHT22;9356;52.202;20.950;2022-07-29T00:41:13;18.60;70.30
18454;DHT22;9356;52.202;20.950;2022-07-29T00:42:15;18.50;70.40
18454;DHT22;9356;52.202;20.950;2022-07-29T00:43:19;18.40;70.40
18454;DHT22;9356;52.202;20.950;2022-07-29T00:44:22;18.50;70.70
18454;DHT22;9356;52.202;20.950;2022-07-29T00:45:25;18.50;70.70
18454;DHT22;9356;52.202;20.950;2022-07-29T00:46:29;18.50;70.70
18454;DHT22;9356;52.202;20.950;2022-07-29T00:47:31;18.50;71.00
18454;DHT22;9356;52.202;20.950;2022-07-29T00:48:35;18.50;70.80
18454;DHT22;9356;52.202;20.950;2022-07-29T00:49:40;18.50;70.60
18454;DHT22;9356;52.202;20.950;2022-07-29T00:50:43;18.50;70.50
18454;DHT22;9356;52.202;20.950;2022-07-29T00:51:49;18.50;70.60
18454;DHT22;9356;52.202;20.950;2022-07-29T00:52:53;18.50;70.80
18454;DHT22;9356;52.202;20.950;2022-07-29T00:53:56;18.40;70.70
18454;DHT22;9356;52.202;20.950;2022-07-29T00:54:59;18.40;70.90
18454;DHT22;9356;52.202;20.950;2022-07-29T00:56:12;18.50;71.00
18454;DHT22;9356;52.202;20.950;2022-07-29T00:57:15;18.50;70.90
18454;DHT22;9356;52.202;20.950;2022-07-29T00:58:18;18.50;71.10
18454;DHT22;9356;52.202;20.950;2022-07-29T00:59:21;18.40;71.10
18454;DHT22;9356;52.202;20.950;2022-07-29T01:00:25;18.40;71.40
18454;DHT22;9356;52.202;20.950;2022-07-29T01:01:30;18.40;71.70
18454;DHT22;9356;52.202;20.950;2022-07-29T01:02:32;18.30;71.70
18454;DHT22;9356;52.202;20.950;2022-07-29T01:03:36;18.40;72.00
18454;DHT22;9356;52.202;20.950;2022-07-29T01:04:39;18.40;71.70
18454;DHT22;9356;52.202;20.950;2022-07-29T01:05:45;18.40;71.80
18454;DHT22;9356;52.202;20.950;2022-07-29T01:06:55;18.30;71.90
18454;DHT22;9356;52.202;20.950;2022-07-29T01:07:59;18.30;72.10
18454;DHT22;9356;52.202;20.950;2022-07-29T01:09:03;18.20;72.20
18454;DHT22;9356;52.202;20.950;2022-07-29T01:10:08;18.20;72.60
18454;DHT22;9356;52.202;20.950;2022-07-29T01:11:13;16.70;71.80
18454;DHT22;9356;52.202;20.950;2022-07-29T01:12:18;18.10;73.00
18454;DHT22;9356;52.202;20.950;2022-07-29T01:13:26;18.00;73.20
18454;DHT22;9356;52.202;20.950;2022-07-29T01:14:29;17.90;73.50
18454;DHT22;9356;52.202;20.950;2022-07-29T01:15:42;17.90;73.90
18454;DHT22;9356;52.202;20.950;2022-07-29T01:16:57;15.60;72.70
18454;DHT22;9356;52.202;20.950;2022-07-29T01:18:11;17.80;74.20
18454;DHT22;9356;52.202;20.950;2022-07-29T01:19:39;17.70;74.50
18454;DHT22;9356;52.202;20.950;2022-07-29T01:21:28;17.60;74.80
18454;DHT22;9356;52.202;20.950;2022-07-29T01:23:01;17.50;75.30
18454;DHT22;9356;52.202;20.950;2022-07-29T01:26:04;17.50;76.00
18454;DHT22;9356;52.202;20.950;2022-07-29T01:27:26;17.40;76.40
18454;DHT22;9356;52.202;20.950;2022-07-29T01:28:51;17.40;77.10
18454;DHT22;9356;52.202;20.950;2022-07-29T01:29:58;16.50;77.10
18454;DHT22;9356;52.202;20.950;2022-07-29T01:31:10;19.40;79.40
18454;DHT22;9356;52.202;20.950;2022-07-29T01:32:29;17.20;78.40
18454;DHT22;9356;52.202;20.950;2022-07-29T01:33:38;17.30;78.90
18454;DHT22;9356;52.202;20.950;2022-07-29T01:35:02;17.20;79.40
18454;DHT22;9356;52.202;20.950;2022-07-29T01:36:12;17.20;79.80
18454;DHT22;9356;52.202;20.950;2022-07-29T01:37:21;17.20;80.00
18454;DHT22;9356;52.202;20.950;2022-07-29T01:38:28;17.20;80.80
18454;DHT22;9356;52.202;20.950;2022-07-29T01:39:34;17.20;81.40
18454;DHT22;9356;52.202;20.950;2022-07-29T01:40:45;17.20;81.90
18454;DHT22;9356;52.202;20.950;2022-07-29T01:41:55;17.20;82.50
18454;DHT22;9356;52.202;20.950;2022-07-29T01:43:09;17.30;83.00
18454;DHT22;9356;52.202;20.950;2022-07-29T01:44:19;17.10;83.50
18454;DHT22;9356;52.202;20.950;2022-07-29T01:45:30;17.20;84.00
18454;DHT22;9356;52.202;20.950;2022-07-29T01:46:38;17.20;84.40
18454;DHT22;9356;52.202;20.950;2022-07-29T01:47:46;17.10;84.60
18454;DHT22;9356;52.202;20.950;2022-07-29T01:48:56;15.20;84.00
18454;DHT22;9356;52.202;20.950;2022-07-29T01:50:02;17.20;85.80
18454;DHT22;9356;52.202;20.950;2022-07-29T01:51:14;17.20;86.20
18454;DHT22;9356;52.202;20.950;2022-07-29T01:52:26;17.30;86.00
18454;DHT22;9356;52.202;20.950;2022-07-29T01:53:35;17.20;86.20
18454;DHT22;9356;52.202;20.950;2022-07-29T01:54:43;17.30;86.90
18454;DHT22;9356;52.202;20.950;2022-07-29T01:55:48;17.30;86.90
18454;DHT22;9356;52.202;20.950;2022-07-29T01:56:56;17.30;87.30
18454;DHT22;9356;52.202;20.950;2022-07-29T01:58:03;17.20;88.10
18454;DHT22;9356;52.202;20.950;2022-07-29T01:59:09;17.20;88.30
18454;DHT22;9356;52.202;20.950;2022-07-29T02:00:16;17.10;88.80
18454;DHT22;9356;52.202;20.950;2022-07-29T02:01:23;17.10;89.30
18454;DHT22;9356;52.202;20.950;2022-07-29T02:02:28;17.10;90.00
18454;DHT22;9356;52.202;20.950;2022-07-29T02:03:36;17.10;90.40
18454;DHT22;9356;52.202;20.950;2022-07-29T02:04:41;18.20;90.70
18454;DHT22;9356;52.202;20.950;2022-07-29T02:05:48;17.10;90.40
18454;DHT22;9356;52.202;20.950;2022-07-29T02:06:54;17.10;90.60
18454;DHT22;9356;52.202;20.950;2022-07-29T02:08:02;17.20;90.50
18454;DHT22;9356;52.202;20.950;2022-07-29T02:09:07;17.10;90.50
18454;DHT22;9356;52.202;20.950;2022-07-29T02:10:13;17.10;90.70
18454;DHT22;9356;52.202;20.950;2022-07-29T02:11:17;17.10;90.80
18454;DHT22;9356;52.202;20.950;2022-07-29T02:12:22;17.20;91.10
18454;DHT22;9356;52.202;20.950;2022-07-29T02:13:29;16.90;91.30
18454;DHT22;9356;52.202;20.950;2022-07-29T02:14:39;17.10;91.60
18454;DHT22;9356;52.202;20.950;2022-07-29T02:15:46;16.90;91.80
18454;DHT22;9356;52.202;20.950;2022-07-29T02:16:54;16.90;91.90
18454;DHT22;9356;52.202;20.950;2022-07-29T02:18:09;19.70;92.90
18454;DHT22;9356;52.202;20.950;2022-07-29T02:19:37;16.90;92.20
18454;DHT22;9356;52.202;20.950;2022-07-29T02:21:03;16.90;92.40
18454;DHT22;9356;52.202;20.950;2022-07-29T02:23:48;16.80;92.70
18454;DHT22;9356;52.202;20.950;2022-07-29T02:24:53;16.70;93.10
18454;DHT22;9356;52.202;20.950;2022-07-29T02:25:59;16.70;93.20
18454;DHT22;9356;52.202;20.950;2022-07-29T02:27:04;16.70;93.40
18454;DHT22;9356;52.202;20.950;2022-07-29T02:28:08;16.60;93.50
18454;DHT22;9356;52.202;20.950;2022-07-29T02:29:13;16.70;93.60
18454;DHT22;9356;52.202;20.950;2022-07-29T02:30:18;16.70;93.60
18454;DHT22;9356;52.202;20.950;2022-07-29T02:33:29;16.70;93.60
18454;DHT22;9356;52.202;20.950;2022-07-29T02:34:37;17.40;94.10
18454;DHT22;9356;52.202;20.950;2022-07-29T02:35:42;16.60;94.00
18454;DHT22;9356;52.202;20.950;2022-07-29T02:36:48;16.60;94.20
18454;DHT22;9356;52.202;20.950;2022-07-29T02:37:53;16.50;94.40
18454;DHT22;9356;52.202;20.950;2022-07-29T02:39:15;16.50;94.40
18454;DHT22;9356;52.202;20.950;2022-07-29T02:40:24;16.50;94.60
18454;DHT22;9356;52.202;20.950;2022-07-29T02:41:30;16.50;94.50
18454;DHT22;9356;52.202;20.950;2022-07-29T02:42:37;16.50;94.50
18454;DHT22;9356;52.202;20.950;2022-07-29T02:43:45;16.50;94.60
18454;DHT22;9356;52.202;20.950;2022-07-29T02:44:50;16.50;94.60
18454;DHT22;9356;52.202;20.950;2022-07-29T02:45:55;16.50;94.70
18454;DHT22;9356;52.202;20.950;2022-07-29T02:47:07;16.40;94.80
18454;DHT22;9356;52.202;20.950;2022-07-29T02:48:16;16.40;95.10
18454;DHT22;9356;52.202;20.950;2022-07-29T02:49:35;16.50;95.10
18454;DHT22;9356;52.202;20.950;2022-07-29T02:50:46;16.50;95.10
18454;DHT22;9356;52.202;20.950;2022-07-29T02:51:54;16.60;95.00
18454;DHT22;9356;52.202;20.950;2022-07-29T02:53:02;16.50;94.90
18454;DHT22;9356;52.202;20.950;2022-07-29T02:54:10;16.50;95.00
18454;DHT22;9356;52.202;20.950;2022-07-29T02:55:23;16.50;95.10
18454;DHT22;9356;52.202;20.950;2022-07-29T02:56:32;16.40;95.20
18454;DHT22;9356;52.202;20.950;2022-07-29T02:57:44;16.40;95.30
18454;DHT22;9356;52.202;20.950;2022-07-29T02:59:00;16.40;95.40
18454;DHT22;9356;52.202;20.950;2022-07-29T03:00:07;16.40;95.50
18454;DHT22;9356;52.202;20.950;2022-07-29T03:01:20;16.40;95.80
18454;DHT22;9356;52.202;20.950;2022-07-29T03:02:25;16.50;95.60
18454;DHT22;9356;52.202;20.950;2022-07-29T03:03:37;14.60;94.80
18454;DHT22;9356;52.202;20.950;2022-07-29T03:04:45;16.60;95.70
18454;DHT22;9356;52.202;20.950;2022-07-29T03:05:55;16.60;95.30
18454;DHT22;9356;52.202;20.950;2022-07-29T03:07:01;16.70;95.20
18454;DHT22;9356;52.202;20.950;2022-07-29T03:08:10;16.80;95.10
18454;DHT22;9356;52.202;20.950;2022-07-29T03:09:14;16.80;95.10
18454;DHT22;9356;52.202;20.950;2022-07-29T03:10:18;16.90;95.00
18454;DHT22;9356;52.202;20.950;2022-07-29T03:11:22;16.90;94.80
18454;DHT22;9356;52.202;20.950;2022-07-29T03:12:48;16.90;94.80
18454;DHT22;9356;52.202;20.950;2022-07-29T03:13:52;16.80;95.00
18454;DHT22;9356;52.202;20.950;2022-07-29T03:14:56;16.80;95.00
18454;DHT22;9356;52.202;20.950;2022-07-29T03:16:01;16.70;95.20
18454;DHT22;9356;52.202;20.950;2022-07-29T03:17:05;16.70;95.40
18454;DHT22;9356;52.202;20.950;2022-07-29T03:18:13;16.60;95.50
18454;DHT22;9356;52.202;20.950;2022-07-29T03:19:16;16.70;95.70
18454;DHT22;9356;52.202;20.950;2022-07-29T03:20:22;16.80;95.60
18454;DHT22;9356;52.202;20.950;2022-07-29T03:21:25;17.00;95.60
18454;DHT22;9356;52.202;20.950;2022-07-29T03:22:29;17.10;95.50
18454;DHT22;9356;52.202;20.950;2022-07-29T03:23:34;17.30;95.00
18454;DHT22;9356;52.202;20.950;2022-07-29T03:24:38;17.60;94.60
18454;DHT22;9356;52.202;20.950;2022-07-29T03:25:48;17.70;94.40
18454;DHT22;9356;52.202;20.950;2022-07-29T03:26:54;17.90;93.90
18454;DHT22;9356;52.202;20.950;2022-07-29T03:27:59;18.10;93.70
18454;DHT22;9356;52.202;20.950;2022-07-29T03:29:01;18.20;93.30
18454;DHT22;9356;52.202;20.950;2022-07-29T03:30:08;18.30;93.50
18454;DHT22;9356;52.202;20.950;2022-07-29T03:31:11;18.60;93.20
18454;DHT22;9356;52.202;20.950;2022-07-29T03:32:14;18.80;92.70
18454;DHT22;9356;52.202;20.950;2022-07-29T03:33:26;19.00;92.30
18454;DHT22;9356;52.202;20.950;2022-07-29T03:34:31;19.30;91.70
18454;DHT22;9356;52.202;20.950;2022-07-29T03:35:36;18.60;90.80
18454;DHT22;9356;52.202;20.950;2022-07-29T03:36:39;19.50;90.70
18454;DHT22;9356;52.202;20.950;2022-07-29T03:37:44;19.70;90.50
18454;DHT22;9356;52.202;20.950;2022-07-29T03:38:48;19.70;90.30
18454;DHT22;9356;52.202;20.950;2022-07-29T03:39:55;19.70;90.30
18454;DHT22;9356;52.202;20.950;2022-07-29T03:41:03;19.70;90.20
18454;DHT22;9356;52.202;20.950;2022-07-29T03:42:11;19.80;90.10
18454;DHT22;9356;52.202;20.950;2022-07-29T03:43:18;20.00;89.40
18454;DHT22;9356;52.202;20.950;2022-07-29T03:44:24;20.10;89.10
18454;DHT22;9356;52.202;20.950;2022-07-29T03:45:32;20.20;88.60
18454;DHT22;9356;52.202;20.950;2022-07-29T03:46:39;20.20;87.40
18454;DHT22;9356;52.202;20.950;2022-07-29T03:47:48;20.20;87.60
18454;DHT22;9356;52.202;20.950;2022-07-29T03:49:03;20.20;87.50
18454;DHT22;9356;52.202;20.950;2022-07-29T03:50:08;20.20;87.40
18454;DHT22;9356;52.202;20.950;2022-07-29T03:51:18;20.20;87.70
18454;DHT22;9356;52.202;20.950;2022-07-29T03:52:35;20.30;87.30
18454;DHT22;9356;52.202;20.950;2022-07-29T03:53:39;20.50;86.20
18454;DHT22;9356;52.202;20.950;2022-07-29T03:54:42;20.50;85.80
18454;DHT22;9356;52.202;20.950;2022-07-29T03:55:50;20.40;85.70
18454;DHT22;9356;52.202;20.950;2022-07-29T03:56:58;20.40;86.40
18454;DHT22;9356;52.202;20.950;2022-07-29T03:58:03;20.30;85.90
18454;DHT22;9356;52.202;20.950;2022-07-29T03:59:08;20.30;86.40
18454;DHT22;9356;52.202;20.950;2022-07-29T04:00:14;20.20;86.40
18454;DHT22;9356;52.202;20.950;2022-07-29T04:01:20;20.10;86.80
18454;DHT22;9356;52.202;20.950;2022-07-29T04:02:23;20.10;87.00
18454;DHT22;9356;52.202;20.950;2022-07-29T04:03:32;20.10;86.80
18454;DHT22;9356;52.202;20.950;2022-07-29T04:04:35;20.10;86.80
18454;DHT22;9356;52.202;20.950;2022-07-29T04:05:39;20.20;86.20
18454;DHT22;9356;52.202;20.950;2022-07-29T04:06:45;20.10;86.30
18454;DHT22;9356;52.202;20.950;2022-07-29T04:07:49;20.10;86.70
18454;DHT22;9356;52.202;20.950;2022-07-29T04:08:52;23.20;88.50
18454;DHT22;9356;52.202;20.950;2022-07-29T04:09:56;20.20;86.80
18454;DHT22;9356;52.202;20.950;2022-07-29T04:11:00;17.60;85.10
18454;DHT22;9356;52.202;20.950;2022-07-29T04:12:05;20.20;86.50
18454;DHT22;9356;52.202;20.950;2022-07-29T04:13:08;20.40;86.50
18454;DHT22;9356;52.202;20.950;2022-07-29T04:14:11;20.50;85.90
18454;DHT22;9356;52.202;20.950;2022-07-29T04:15:17;20.60;85.60
18454;DHT22;9356;52.202;20.950;2022-07-29T04:16:20;20.70;84.70
18454;DHT22;9356;52.202;20.950;2022-07-29T04:17:25;20.70;84.50
18454;DHT22;9356;52.202;20.950;2022-07-29T04:18:29;20.80;83.90
18454;DHT22;9356;52.202;20.950;2022-07-29T04:19:32;20.90;84.00
18454;DHT22;9356;52.202;20.950;2022-07-29T04:20:36;21.00;83.30
18454;DHT22;9356;52.202;20.950;2022-07-29T04:21:39;21.00;83.30
18454;DHT22;9356;52.202;20.950;2022-07-29T04:22:44;21.00;82.90
18454;DHT22;9356;52.202;20.950;2022-07-29T04:23:49;21.10;82.70
18454;DHT22;9356;52.202;20.950;2022-07-29T04:24:55;21.00;82.60
18454;DHT22;9356;52.202;20.950;2022-07-29T04:32:21;21.20;82.60
18454;DHT22;9356;52.202;20.950;2022-07-29T04:33:25;21.00;83.50
18454;DHT22;9356;52.202;20.950;2022-07-29T04:34:28;20.90;83.60
18454;DHT22;9356;52.202;20.950;2022-07-29T04:35:35;20.90;83.70
18454;DHT22;9356;52.202;20.950;2022-07-29T04:36:40;21.00;83.90
18454;DHT22;9356;52.202;20.950;2022-07-29T04:37:47;21.10;83.40
18454;DHT22;9356;52.202;20.950;2022-07-29T04:38:50;21.10;82.80
18454;DHT22;9356;52.202;20.950;2022-07-29T04:39:54;21.20;83.00
18454;DHT22;9356;52.202;20.950;2022-07-29T04:40:56;21.30;83.40
18454;DHT22;9356;52.202;20.950;2022-07-29T04:42:01;21.40;82.80
18454;DHT22;9356;52.202;20.950;2022-07-29T04:43:04;21.60;82.00
18454;DHT22;9356;52.202;20.950;2022-07-29T04:44:07;21.70;80.50
18454;DHT22;9356;52.202;20.950;2022-07-29T04:45:10;21.70;80.60
18454;DHT22;9356;52.202;20.950;2022-07-29T04:46:15;21.50;81.00
18454;DHT22;9356;52.202;20.950;2022-07-29T04:47:19;21.50;81.10
18454;DHT22;9356;52.202;20.950;2022-07-29T04:48:22;21.40;80.60
18454;DHT22;9356;52.202;20.950;2022-07-29T04:49:30;21.30;81.20
18454;DHT22;9356;52.202;20.950;2022-07-29T04:50:37;21.20;81.90
18454;DHT22;9356;52.202;20.950;2022-07-29T04:51:41;21.10;82.00
18454;DHT22;9356;52.202;20.950;2022-07-29T04:52:44;21.10;82.40
18454;DHT22;9356;52.202;20.950;2022-07-29T04:53:50;21.10;82.10
18454;DHT22;9356;52.202;20.950;2022-07-29T04:54:54;21.00;82.00
18454;DHT22;9356;52.202;20.950;2022-07-29T04:55:56;20.90;82.60
18454;DHT22;9356;52.202;20.950;2022-07-29T04:57:00;20.70;83.30
18454;DHT22;9356;52.202;20.950;2022-07-29T04:58:03;20.70;83.70
18454;DHT22;9356;52.202;20.950;2022-07-29T04:59:07;20.60;83.90
18454;DHT22;9356;52.202;20.950;2022-07-29T05:00:14;20.70;84.80
18454;DHT22;9356;52.202;20.950;2022-07-29T05:01:17;20.80;84.50
18454;DHT22;9356;52.202;20.950;2022-07-29T05:02:23;21.00;84.00
18454;DHT22;9356;52.202;20.950;2022-07-29T05:03:26;21.20;83.90
18454;DHT22;9356;52.202;20.950;2022-07-29T05:04:29;21.30;82.50
18454;DHT22;9356;52.202;20.950;2022-07-29T05:05:32;21.30;82.40
18454;DHT22;9356;52.202;20.950;2022-07-29T05:06:37;21.50;83.10
18454;DHT22;9356;52.202;20.950;2022-07-29T05:07:40;21.70;81.50
18454;DHT22;9356;52.202;20.950;2022-07-29T05:08:43;21.90;81.30
18454;DHT22;9356;52.202;20.950;2022-07-29T05:09:47;22.00;80.20
18454;DHT22;9356;52.202;20.950;2022-07-29T05:10:51;22.10;79.10
18454;DHT22;9356;52.202;20.950;2022-07-29T05:11:54;22.10;78.30
18454;DHT22;9356;52.202;20.950;2022-07-29T05:12:59;22.00;79.40
18454;DHT22;9356;52.202;20.950;2022-07-29T05:14:05;22.20;79.40
18454;DHT22;9356;52.202;20.950;2022-07-29T05:15:09;22.10;78.70
18454;DHT22;9356;52.202;20.950;2022-07-29T05:16:13;22.10;78.80
18454;DHT22;9356;52.202;20.950;2022-07-29T05:17:16;22.20;77.60
18454;DHT22;9356;52.202;20.950;2022-07-29T05:18:20;22.00;77.90
18454;DHT22;9356;52.202;20.950;2022-07-29T05:19:27;22.00;78.00
18454;DHT22;9356;52.202;20.950;2022-07-29T05:20:31;22.00;77.80
18454;DHT22;9356;52.202;20.950;2022-07-29T05:21:35;21.90;77.90
18454;DHT22;9356;52.202;20.950;2022-07-29T05:22:39;21.90;77.40
18454;DHT22;9356;52.202;20.950;2022-07-29T05:23:41;21.90;76.90
18454;DHT22;9356;52.202;20.950;2022-07-29T05:24:49;21.80;78.00
18454;DHT22;9356;52.202;20.950;2022-07-29T05:25:51;21.90;77.40
18454;DHT22;9356;52.202;20.950;2022-07-29T05:26:55;21.90;77.50
18454;DHT22;9356;52.202;20.950;2022-07-29T05:27:58;21.90;77.10
18454;DHT22;9356;52.202;20.950;2022-07-29T05:29:02;21.90;77.90
18454;DHT22;9356;52.202;20.950;2022-07-29T05:30:06;22.10;77.70
18454;DHT22;9356;52.202;20.950;2022-07-29T05:31:11;22.10;76.70
18454;DHT22;9356;52.202;20.950;2022-07-29T05:32:13;22.30;76.20
18454;DHT22;9356;52.202;20.950;2022-07-29T05:33:17;22.10;76.10
18454;DHT22;9356;52.202;20.950;2022-07-29T05:34:38;22.20;77.20
18454;DHT22;9356;52.202;20.950;2022-07-29T05:35:52;22.30;77.10
18454;DHT22;9356;52.202;20.950;2022-07-29T05:37:01;22.30;76.50
18454;DHT22;9356;52.202;20.950;2022-07-29T05:38:05;22.60;75.10
18454;DHT22;9356;52.202;20.950;2022-07-29T05:39:08;22.60;75.60
18454;DHT22;9356;52.202;20.950;2022-07-29T05:40:14;22.70;74.90
18454;DHT22;9356;52.202;20.950;2022-07-29T05:41:18;22.80;75.00
18454;DHT22;9356;52.202;20.950;2022-07-29T05:42:22;22.90;74.00
18454;DHT22;9356;52.202;20.950;2022-07-29T05:43:25;22.90;73.30
18454;DHT22;9356;52.202;20.950;2022-07-29T05:44:29;22.80;75.20
18454;DHT22;9356;52.202;20.950;2022-07-29T05:45:33;22.90;74.50
18454;DHT22;9356;52.202;20.950;2022-07-29T05:46:52;22.90;73.60
18454;DHT22;9356;52.202;20.950;2022-07-29T05:47:55;23.70;75.00
18454;DHT22;9356;52.202;20.950;2022-07-29T05:48:59;23.10;72.80
18454;DHT22;9356;52.202;20.950;2022-07-29T05:50:02;23.20;72.30
18454;DHT22;9356;52.202;20.950;2022-07-29T05:51:07;23.10;72.50
18454;DHT22;9356;52.202;20.950;2022-07-29T05:52:09;23.10;73.10
18454;DHT22;9356;52.202;20.950;2022-07-29T05:53:13;23.00;72.50
18454;DHT22;9356;52.202;20.950;2022-07-29T05:54:21;25.80;75.30
18454;DHT22;9356;52.202;20.950;2022-07-29T05:55:26;23.00;73.60
18454;DHT22;9356;52.202;20.950;2022-07-29T05:56:31;23.10;72.70
18454;DHT22;9356;52.202;20.950;2022-07-29T05:57:35;23.20;73.10
18454;DHT22;9356;52.202;20.950;2022-07-29T05:58:40;23.50;72.40
18454;DHT22;9356;52.202;20.950;2022-07-29T05:59:45;23.60;71.10
18454;DHT22;9356;52.202;20.950;2022-07-29T06:00:50;23.60;71.30
18454;DHT22;9356;52.202;20.950;2022-07-29T06:01:54;23.60;70.70
18454;DHT22;9356;52.202;20.950;2022-07-29T06:02:59;23.70;71.80
18454;DHT22;9356;52.202;20.950;2022-07-29T06:04:04;23.80;71.30
18454;DHT22;9356;52.202;20.950;2022-07-29T06:05:07;24.80;70.10
18454;DHT22;9356;52.202;20.950;2022-07-29T06:09:14;24.00;69.90
18454;DHT22;9356;52.202;20.950;2022-07-29T06:10:18;24.20;69.40
18454;DHT22;9356;52.202;20.950;2022-07-29T06:11:26;24.10;69.00
18454;DHT22;9356;52.202;20.950;2022-07-29T06:12:30;24.20;67.90
18454;DHT22;9356;52.202;20.950;2022-07-29T06:13:35;24.10;68.60
18454;DHT22;9356;52.202;20.950;2022-07-29T06:14:39;24.10;68.20
18454;DHT22;9356;52.202;20.950;2022-07-29T06:15:44;24.10;68.20
18454;DHT22;9356;52.202;20.950;2022-07-29T06:16:50;24.00;67.90
18454;DHT22;9356;52.202;20.950;2022-07-29T06:17:55;23.90;67.60
18454;DHT22;9356;52.202;20.950;2022-07-29T06:19:05;23.90;69.60
18454;DHT22;9356;52.202;20.950;2022-07-29T06:20:11;23.90;68.60
18454;DHT22;9356;52.202;20.950;2022-07-29T06:21:16;24.00;68.50
18454;DHT22;9356;52.202;20.950;2022-07-29T06:22:21;24.00;68.30
18454;DHT22;9356;52.202;20.950;2022-07-29T06:23:25;24.10;67.70
18454;DHT22;9356;52.202;20.950;2022-07-29T06:24:30;24.10;68.40
18454;DHT22;9356;52.202;20.950;2022-07-29T06:25:34;24.10;68.80
18454;DHT22;9356;52.202;20.950;2022-07-29T06:26:40;24.20;68.80
18454;DHT22;9356;52.202;20.950;2022-07-29T06:27:44;24.40;68.00
18454;DHT22;9356;52.202;20.950;2022-07-29T06:28:48;24.50;67.00
18454;DHT22;9356;52.202;20.950;2022-07-29T06:29:52;24.50;66.20
18454;DHT22;9356;52.202;20.950;2022-07-29T06:30:56;24.60;65.80
18454;DHT22;9356;52.202;20.950;2022-07-29T06:32:00;24.40;66.00
18454;DHT22;9356;52.202;20.950;2022-07-29T06:33:04;24.30;66.50
18454;DHT22;9356;52.202;20.950;2022-07-29T06:34:08;24.20;66.70
18454;DHT22;9356;52.202;20.950;2022-07-29T06:35:11;24.10;68.20
18454;DHT22;9356;52.202;20.950;2022-07-29T06:36:37;24.10;68.10
18454;DHT22;9356;52.202;20.950;2022-07-29T06:37:42;24.10;66.90
18454;DHT22;9356;52.202;20.950;2022-07-29T06:38:47;24.10;66.90
18454;DHT22;9356;52.202;20.950;2022-07-29T06:39:53;24.00;67.10
18454;DHT22;9356;52.202;20.950;2022-07-29T06:41:11;23.90;67.30
18454;DHT22;9356;52.202;20.950;2022-07-29T06:42:20;23.80;67.30
18454;DHT22;9356;52.202;20.950;2022-07-29T06:43:23;23.90;68.80
18454;DHT22;9356;52.202;20.950;2022-07-29T06:44:28;24.00;68.30
18454;DHT22;9356;52.202;20.950;2022-07-29T06:45:34;24.00;68.00
18454;DHT22;9356;52.202;20.950;2022-07-29T06:46:37;24.10;67.50
18454;DHT22;9356;52.202;20.950;2022-07-29T06:47:40;24.30;68.30
18454;DHT22;9356;52.202;20.950;2022-07-29T06:48:44;24.40;67.20
18454;DHT22;9356;52.202;20.950;2022-07-29T06:49:50;24.40;66.50
18454;DHT22;9356;52.202;20.950;2022-07-29T06:50:59;24.50;66.40
18454;DHT22;9356;52.202;20.950;2022-07-29T06:52:03;24.60;66.40
18454;DHT22;9356;52.202;20.950;2022-07-29T06:53:08;24.70;65.50
18454;DHT22;9356;52.202;20.950;2022-07-29T06:54:10;24.70;65.30
18454;DHT22;9356;52.202;20.950;2022-07-29T06:55:15;24.70;64.60
18454;DHT22;9356;52.202;20.950;2022-07-29T06:56:26;24.60;64.70
18454;DHT22;9356;52.202;20.950;2022-07-29T06:57:32;24.50;64.50
18454;DHT22;9356;52.202;20.950;2022-07-29T06:58:36;24.40;64.10
18454;DHT22;9356;52.202;20.950;2022-07-29T06:59:41;24.40;65.10
18454;DHT22;9356;52.202;20.950;2022-07-29T07:00:44;24.40;65.00
18454;DHT22;9356;52.202;20.950;2022-07-29T07:01:51;24.40;65.10
18454;DHT22;9356;52.202;20.950;2022-07-29T07:02:56;24.50;65.10
18454;DHT22;9356;52.202;20.950;2022-07-29T07:04:00;24.40;65.50
18454;DHT22;9356;52.202;20.950;2022-07-29T07:05:08;24.40;65.40
18454;DHT22;9356;52.202;20.950;2022-07-29T07:06:11;24.40;66.00
18454;DHT22;9356;52.202;20.950;2022-07-29T07:07:16;24.50;65.60
18454;DHT22;9356;52.202;20.950;2022-07-29T07:08:20;24.60;64.60
18454;DHT22;9356;52.202;20.950;2022-07-29T07:09:26;24.60;64.50
18454;DHT22;9356;52.202;20.950;2022-07-29T07:10:43;24.60;65.30
18454;DHT22;9356;52.202;20.950;2022-07-29T07:11:47;24.60;64.10
18454;DHT22;9356;52.202;20.950;2022-07-29T07:12:56;24.60;64.70
18454;DHT22;9356;52.202;20.950;2022-07-29T07:13:59;24.60;64.10